sensor_id;sensor_type;location;lat;lon;timestamp;temperature;humidity
10133;DHT22;5106;50.926;7.080;2023-03-25T00:00:55;10.00;77.70
10133;DHT22;5106;50.926;7.080;2023-03-25T00:03:28;9.90;78.20
10133;DHT22;5106;50.926;7.080;2023-03-25T00:05:55;9.90;78.40
10133;DHT22;5106;50.926;7.080;2023-03-25T00:08:22;9.90;78.00
10133;DHT22;5106;50.926;7.080;2023-03-25T00:10:58;9.90;78.00
10133;DHT22;5106;50.926;7.080;2023-03-25T00:13:26;9.90;77.90
10133;DHT22;5106;50.926;7.080;2023-03-25T00:15:52;9.80;77.90
10133;DHT22;5106;50.926;7.080;2023-03-25T00:18:24;9.80;78.00
10133;DHT22;5106;50.926;7.080;2023-03-25T00:20:51;9.70;78.30
10133;DHT22;5106;50.926;7.080;2023-03-25T00:23:20;9.70;78.20
10133;DHT22;5106;50.926;7.080;2023-03-25T00:25:47;9.70;77.90
10133;DHT22;5106;50.926;7.080;2023-03-25T00:28:14;9.70;78.30
10133;DHT22;5106;50.926;7.080;2023-03-25T00:30:41;9.70;77.80
10133;DHT22;5106;50.926;7.080;2023-03-25T00:33:07;9.70;77.70
10133;DHT22;5106;50.926;7.080;2023-03-25T00:35:38;9.80;77.30
10133;DHT22;5106;50.926;7.080;2023-03-25T00:38:10;9.80;78.00
10133;DHT22;5106;50.926;7.080;2023-03-25T00:40:35;9.80;78.20
10133;DHT22;5106;50.926;7.080;2023-03-25T00:43:02;9.80;78.20
10133;DHT22;5106;50.926;7.080;2023-03-25T00:45:29;9.80;78.40
10133;DHT22;5106;50.926;7.080;2023-03-25T00:47:55;9.80;78.70
10133;DHT22;5106;50.926;7.080;2023-03-25T00:50:21;9.80;78.90
10133;DHT22;5106;50.926;7.080;2023-03-25T00:52:48;9.80;78.90
10133;DHT22;5106;50.926;7.080;2023-03-25T00:55:14;9.80;79.00
10133;DHT22;5106;50.926;7.080;2023-03-25T00:57:39;9.70;79.00
10133;DHT22;5106;50.926;7.080;2023-03-25T01:00:07;9.70;79.30
10133;DHT22;5106;50.926;7.080;2023-03-25T01:02:34;9.70;79.20
10133;DHT22;5106;50.926;7.080;2023-03-25T01:05:00;9.70;79.00
10133;DHT22;5106;50.926;7.080;2023-03-25T01:07:26;9.70;78.70
10133;DHT22;5106;50.926;7.080;2023-03-25T01:09:54;9.70;78.90
10133;DHT22;5106;50.926;7.080;2023-03-25T01:12:20;9.70;79.10
10133;DHT22;5106;50.926;7.080;2023-03-25T01:14:45;9.70;78.90
10133;DHT22;5106;50.926;7.080;2023-03-25T01:17:11;9.70;79.10
10133;DHT22;5106;50.926;7.080;2023-03-25T01:19:37;9.60;79.20
10133;DHT22;5106;50.926;7.080;2023-03-25T01:22:03;9.60;79.40
10133;DHT22;5106;50.926;7.080;2023-03-25T01:24:29;9.60;79.40
10133;DHT22;5106;50.926;7.080;2023-03-25T01:26:54;9.50;79.40
10133;DHT22;5106;50.926;7.080;2023-03-25T01:29:21;9.50;79.40
10133;DHT22;5106;50.926;7.080;2023-03-25T01:31:47;9.50;79.60
10133;DHT22;5106;50.926;7.080;2023-03-25T01:34:14;9.50;79.50
10133;DHT22;5106;50.926;7.080;2023-03-25T01:36:39;9.50;79.40
10133;DHT22;5106;50.926;7.080;2023-03-25T01:39:07;9.50;79.50
10133;DHT22;5106;50.926;7.080;2023-03-25T01:41:34;9.50;79.40
10133;DHT22;5106;50.926;7.080;2023-03-25T01:46:42;9.50;79.50
10133;DHT22;5106;50.926;7.080;2023-03-25T01:49:13;9.50;79.40
10133;DHT22;5106;50.926;7.080;2023-03-25T01:51:43;9.50;79.50
10133;DHT22;5106;50.926;7.080;2023-03-25T01:54:12;9.50;79.60
10133;DHT22;5106;50.926;7.080;2023-03-25T01:56:44;9.50;79.90
10133;DHT22;5106;50.926;7.080;2023-03-25T01:59:12;9.50;79.80
10133;DHT22;5106;50.926;7.080;2023-03-25T02:01:38;9.50;79.70
10133;DHT22;5106;50.926;7.080;2023-03-25T02:04:04;9.50;79.80
10133;DHT22;5106;50.926;7.080;2023-03-25T02:06:45;9.50;79.70
10133;DHT22;5106;50.926;7.080;2023-03-25T02:09:17;9.40;79.60
10133;DHT22;5106;50.926;7.080;2023-03-25T02:11:43;9.40;79.80
10133;DHT22;5106;50.926;7.080;2023-03-25T02:14:12;9.30;80.70
10133;DHT22;5106;50.926;7.080;2023-03-25T02:16:48;9.20;80.90
10133;DHT22;5106;50.926;7.080;2023-03-25T02:22:33;9.00;81.40
10133;DHT22;5106;50.926;7.080;2023-03-25T02:26:11;8.90;81.70
10133;DHT22;5106;50.926;7.080;2023-03-25T02:34:32;8.90;81.90
10133;DHT22;5106;50.926;7.080;2023-03-25T02:39:55;8.70;81.60
10133;DHT22;5106;50.926;7.080;2023-03-25T02:42:40;8.60;81.80
10133;DHT22;5106;50.926;7.080;2023-03-25T02:45:16;8.50;82.20
10133;DHT22;5106;50.926;7.080;2023-03-25T02:47:48;8.40;82.60
10133;DHT22;5106;50.926;7.080;2023-03-25T02:50:42;8.30;83.00
10133;DHT22;5106;50.926;7.080;2023-03-25T02:53:14;8.20;83.20
10133;DHT22;5106;50.926;7.080;2023-03-25T02:55:42;8.20;83.60
10133;DHT22;5106;50.926;7.080;2023-03-25T02:58:11;8.10;83.80
10133;DHT22;5106;50.926;7.080;2023-03-25T03:00:38;8.10;83.90
10133;DHT22;5106;50.926;7.080;2023-03-25T03:03:06;8.10;84.00
10133;DHT22;5106;50.926;7.080;2023-03-25T03:05:34;8.10;84.00
10133;DHT22;5106;50.926;7.080;2023-03-25T03:13:32;8.10;84.00
10133;DHT22;5106;50.926;7.080;2023-03-25T03:16:31;8.10;83.90
10133;DHT22;5106;50.926;7.080;2023-03-25T03:24:26;8.10;84.10
10133;DHT22;5106;50.926;7.080;2023-03-25T03:27:03;8.10;84.00
10133;DHT22;5106;50.926;7.080;2023-03-25T03:29:37;8.10;84.10
10133;DHT22;5106;50.926;7.080;2023-03-25T03:32:19;8.10;84.00
10133;DHT22;5106;50.926;7.080;2023-03-25T03:35:00;8.10;83.80
10133;DHT22;5106;50.926;7.080;2023-03-25T03:37:34;8.10;83.20
10133;DHT22;5106;50.926;7.080;2023-03-25T03:40:04;8.10;82.70
10133;DHT22;5106;50.926;7.080;2023-03-25T03:42:33;8.10;82.60
10133;DHT22;5106;50.926;7.080;2023-03-25T03:45:07;8.20;82.60
10133;DHT22;5106;50.926;7.080;2023-03-25T03:47:38;8.20;82.50
10133;DHT22;5106;50.926;7.080;2023-03-25T03:50:27;8.20;82.60
10133;DHT22;5106;50.926;7.080;2023-03-25T03:53:10;8.20;82.60
10133;DHT22;5106;50.926;7.080;2023-03-25T03:55:42;8.20;82.50
10133;DHT22;5106;50.926;7.080;2023-03-25T03:58:15;8.20;82.50
10133;DHT22;5106;50.926;7.080;2023-03-25T04:01:16;8.20;82.70
10133;DHT22;5106;50.926;7.080;2023-03-25T04:03:57;8.20;82.80
10133;DHT22;5106;50.926;7.080;2023-03-25T04:06:38;8.20;82.50
10133;DHT22;5106;50.926;7.080;2023-03-25T04:09:15;8.30;82.00
10133;DHT22;5106;50.926;7.080;2023-03-25T04:11:56;8.30;81.90
10133;DHT22;5106;50.926;7.080;2023-03-25T04:14:24;8.30;82.00
10133;DHT22;5106;50.926;7.080;2023-03-25T04:16:50;8.30;81.90
10133;DHT22;5106;50.926;7.080;2023-03-25T04:19:17;8.40;81.60
10133;DHT22;5106;50.926;7.080;2023-03-25T04:21:44;8.40;81.30
10133;DHT22;5106;50.926;7.080;2023-03-25T04:24:10;8.50;81.20
10133;DHT22;5106;50.926;7.080;2023-03-25T04:26:36;8.50;80.90
10133;DHT22;5106;50.926;7.080;2023-03-25T04:29:05;8.60;80.20
10133;DHT22;5106;50.926;7.080;2023-03-25T04:31:32;8.60;80.30
10133;DHT22;5106;50.926;7.080;2023-03-25T04:33:58;8.60;80.50
10133;DHT22;5106;50.926;7.080;2023-03-25T04:36:25;8.60;80.10
10133;DHT22;5106;50.926;7.080;2023-03-25T04:38:57;8.60;80.40
10133;DHT22;5106;50.926;7.080;2023-03-25T04:41:23;8.70;79.70
10133;DHT22;5106;50.926;7.080;2023-03-25T04:43:50;8.70;79.70
10133;DHT22;5106;50.926;7.080;2023-03-25T04:46:16;8.70;80.20
10133;DHT22;5106;50.926;7.080;2023-03-25T04:48:42;8.70;80.10
10133;DHT22;5106;50.926;7.080;2023-03-25T04:51:10;8.70;80.10
10133;DHT22;5106;50.926;7.080;2023-03-25T04:53:36;8.70;80.20
10133;DHT22;5106;50.926;7.080;2023-03-25T04:56:03;8.70;80.30
10133;DHT22;5106;50.926;7.080;2023-03-25T04:58:30;8.70;80.30
10133;DHT22;5106;50.926;7.080;2023-03-25T05:00:56;8.60;80.50
10133;DHT22;5106;50.926;7.080;2023-03-25T05:03:32;8.70;79.80
10133;DHT22;5106;50.926;7.080;2023-03-25T05:05:58;8.70;79.40
10133;DHT22;5106;50.926;7.080;2023-03-25T05:08:24;8.70;79.60
10133;DHT22;5106;50.926;7.080;2023-03-25T05:10:50;8.80;79.20
10133;DHT22;5106;50.926;7.080;2023-03-25T05:13:17;8.80;78.90
10133;DHT22;5106;50.926;7.080;2023-03-25T05:15:42;8.90;78.80
10133;DHT22;5106;50.926;7.080;2023-03-25T05:18:10;8.90;78.50
10133;DHT22;5106;50.926;7.080;2023-03-25T05:20:37;8.90;78.50
10133;DHT22;5106;50.926;7.080;2023-03-25T05:23:05;8.90;78.70
10133;DHT22;5106;50.926;7.080;2023-03-25T05:25:31;9.00;78.50
10133;DHT22;5106;50.926;7.080;2023-03-25T05:27:59;9.00;78.50
10133;DHT22;5106;50.926;7.080;2023-03-25T05:30:31;9.00;79.30
10133;DHT22;5106;50.926;7.080;2023-03-25T05:32:58;8.90;79.40
10133;DHT22;5106;50.926;7.080;2023-03-25T05:35:25;8.90;79.40
10133;DHT22;5106;50.926;7.080;2023-03-25T05:37:51;8.90;78.80
10133;DHT22;5106;50.926;7.080;2023-03-25T05:40:17;8.90;78.70
10133;DHT22;5106;50.926;7.080;2023-03-25T05:42:43;8.90;79.10
10133;DHT22;5106;50.926;7.080;2023-03-25T05:45:16;9.00;78.50
10133;DHT22;5106;50.926;7.080;2023-03-25T05:47:42;9.00;78.70
10133;DHT22;5106;50.926;7.080;2023-03-25T05:50:09;9.00;79.20
10133;DHT22;5106;50.926;7.080;2023-03-25T05:52:35;9.00;79.10
10133;DHT22;5106;50.926;7.080;2023-03-25T05:55:01;9.00;79.00
10133;DHT22;5106;50.926;7.080;2023-03-25T05:57:28;9.00;78.80
10133;DHT22;5106;50.926;7.080;2023-03-25T05:59:53;9.00;78.90
10133;DHT22;5106;50.926;7.080;2023-03-25T06:02:20;9.00;79.30
10133;DHT22;5106;50.926;7.080;2023-03-25T06:04:47;9.00;78.80
10133;DHT22;5106;50.926;7.080;2023-03-25T06:07:15;9.00;79.20
10133;DHT22;5106;50.926;7.080;2023-03-25T06:09:48;9.00;79.10
10133;DHT22;5106;50.926;7.080;2023-03-25T06:12:18;9.10;78.40
10133;DHT22;5106;50.926;7.080;2023-03-25T06:14:45;9.10;78.90
10133;DHT22;5106;50.926;7.080;2023-03-25T06:17:11;9.10;79.20
10133;DHT22;5106;50.926;7.080;2023-03-25T06:19:37;9.10;78.40
10133;DHT22;5106;50.926;7.080;2023-03-25T06:22:08;9.10;79.20
10133;DHT22;5106;50.926;7.080;2023-03-25T06:24:35;9.10;79.40
10133;DHT22;5106;50.926;7.080;2023-03-25T06:27:02;9.10;78.80
10133;DHT22;5106;50.926;7.080;2023-03-25T06:29:27;9.10;79.10
10133;DHT22;5106;50.926;7.080;2023-03-25T06:31:53;9.10;79.00
10133;DHT22;5106;50.926;7.080;2023-03-25T06:34:18;9.10;79.00
10133;DHT22;5106;50.926;7.080;2023-03-25T06:36:44;9.10;79.40
10133;DHT22;5106;50.926;7.080;2023-03-25T06:39:15;9.10;78.90
10133;DHT22;5106;50.926;7.080;2023-03-25T06:41:41;9.10;78.80
10133;DHT22;5106;50.926;7.080;2023-03-25T06:44:06;9.10;78.90
10133;DHT22;5106;50.926;7.080;2023-03-25T06:46:32;9.10;77.90
10133;DHT22;5106;50.926;7.080;2023-03-25T06:48:58;9.20;77.30
10133;DHT22;5106;50.926;7.080;2023-03-25T06:51:23;9.30;77.50
10133;DHT22;5106;50.926;7.080;2023-03-25T06:53:49;9.30;77.10
10133;DHT22;5106;50.926;7.080;2023-03-25T06:56:14;9.40;76.30
10133;DHT22;5106;50.926;7.080;2023-03-25T06:58:40;9.40;76.80
10133;DHT22;5106;50.926;7.080;2023-03-25T07:01:06;9.50;76.50
10133;DHT22;5106;50.926;7.080;2023-03-25T07:03:33;9.60;76.60
10133;DHT22;5106;50.926;7.080;2023-03-25T07:05:59;9.60;76.90
10133;DHT22;5106;50.926;7.080;2023-03-25T07:08:24;9.60;76.40
10133;DHT22;5106;50.926;7.080;2023-03-25T07:10:50;9.60;77.30
10133;DHT22;5106;50.926;7.080;2023-03-25T07:13:16;9.50;78.50
10133;DHT22;5106;50.926;7.080;2023-03-25T07:15:42;9.30;79.60
10133;DHT22;5106;50.926;7.080;2023-03-25T07:18:07;9.20;80.10
10133;DHT22;5106;50.926;7.080;2023-03-25T07:20:33;9.00;80.10
10133;DHT22;5106;50.926;7.080;2023-03-25T07:22:58;8.90;80.60
10133;DHT22;5106;50.926;7.080;2023-03-25T07:25:24;8.80;80.50
10133;DHT22;5106;50.926;7.080;2023-03-25T07:27:51;8.70;80.60
10133;DHT22;5106;50.926;7.080;2023-03-25T07:30:18;8.70;80.90
10133;DHT22;5106;50.926;7.080;2023-03-25T07:32:44;8.70;80.40
10133;DHT22;5106;50.926;7.080;2023-03-25T07:35:10;8.80;80.70
10133;DHT22;5106;50.926;7.080;2023-03-25T07:37:36;8.90;80.40
10133;DHT22;5106;50.926;7.080;2023-03-25T07:40:01;8.90;80.30
10133;DHT22;5106;50.926;7.080;2023-03-25T07:42:27;9.00;80.80
10133;DHT22;5106;50.926;7.080;2023-03-25T07:44:53;9.10;81.00
10133;DHT22;5106;50.926;7.080;2023-03-25T07:47:18;9.10;80.80
10133;DHT22;5106;50.926;7.080;2023-03-25T07:49:44;9.10;80.90
10133;DHT22;5106;50.926;7.080;2023-03-25T07:52:11;9.20;80.40
10133;DHT22;5106;50.926;7.080;2023-03-25T07:54:36;9.20;80.60
10133;DHT22;5106;50.926;7.080;2023-03-25T07:57:02;9.20;80.50
10133;DHT22;5106;50.926;7.080;2023-03-25T07:59:28;9.20;80.20
10133;DHT22;5106;50.926;7.080;2023-03-25T08:01:53;9.20;80.40
10133;DHT22;5106;50.926;7.080;2023-03-25T08:04:19;9.20;80.50
10133;DHT22;5106;50.926;7.080;2023-03-25T08:06:45;9.20;80.70
10133;DHT22;5106;50.926;7.080;2023-03-25T08:09:10;9.20;80.50
10133;DHT22;5106;50.926;7.080;2023-03-25T08:11:36;9.30;80.40
10133;DHT22;5106;50.926;7.080;2023-03-25T08:14:02;9.30;80.00
10133;DHT22;5106;50.926;7.080;2023-03-25T08:16:27;9.40;79.80
10133;DHT22;5106;50.926;7.080;2023-03-25T08:18:53;9.40;80.30
10133;DHT22;5106;50.926;7.080;2023-03-25T08:21:19;9.50;80.00
10133;DHT22;5106;50.926;7.080;2023-03-25T08:23:53;9.40;79.70
10133;DHT22;5106;50.926;7.080;2023-03-25T08:26:23;9.50;79.60
10133;DHT22;5106;50.926;7.080;2023-03-25T08:28:51;9.50;79.60
10133;DHT22;5106;50.926;7.080;2023-03-25T08:31:19;9.60;79.20
10133;DHT22;5106;50.926;7.080;2023-03-25T08:33:46;9.60;78.60
10133;DHT22;5106;50.926;7.080;2023-03-25T08:36:11;9.60;78.30
10133;DHT22;5106;50.926;7.080;2023-03-25T08:38:39;9.70;77.60
10133;DHT22;5106;50.926;7.080;2023-03-25T08:41:06;9.80;77.20
10133;DHT22;5106;50.926;7.080;2023-03-25T08:43:31;9.90;77.20
10133;DHT22;5106;50.926;7.080;2023-03-25T08:45:57;10.00;76.60
10133;DHT22;5106;50.926;7.080;2023-03-25T08:48:23;10.20;77.00
10133;DHT22;5106;50.926;7.080;2023-03-25T08:50:49;10.30;76.70
10133;DHT22;5106;50.926;7.080;2023-03-25T08:53:14;10.30;75.20
10133;DHT22;5106;50.926;7.080;2023-03-25T08:55:40;10.30;75.70
10133;DHT22;5106;50.926;7.080;2023-03-25T08:58:06;10.20;75.30
10133;DHT22;5106;50.926;7.080;2023-03-25T09:00:33;10.20;75.80
10133;DHT22;5106;50.926;7.080;2023-03-25T09:03:01;10.20;75.30
10133;DHT22;5106;50.926;7.080;2023-03-25T09:05:27;10.20;75.40
10133;DHT22;5106;50.926;7.080;2023-03-25T09:07:55;10.20;74.80
10133;DHT22;5106;50.926;7.080;2023-03-25T09:10:21;10.20;74.90
10133;DHT22;5106;50.926;7.080;2023-03-25T09:12:46;10.30;75.20
10133;DHT22;5106;50.926;7.080;2023-03-25T09:15:12;10.30;73.70
10133;DHT22;5106;50.926;7.080;2023-03-25T09:17:38;10.20;73.90
10133;DHT22;5106;50.926;7.080;2023-03-25T09:20:05;10.30;74.00
10133;DHT22;5106;50.926;7.080;2023-03-25T09:22:34;10.20;73.70
10133;DHT22;5106;50.926;7.080;2023-03-25T09:25:00;10.20;74.20
10133;DHT22;5106;50.926;7.080;2023-03-25T09:27:26;10.30;74.20
10133;DHT22;5106;50.926;7.080;2023-03-25T09:29:51;10.30;74.20
10133;DHT22;5106;50.926;7.080;2023-03-25T09:32:17;10.30;74.30
10133;DHT22;5106;50.926;7.080;2023-03-25T09:34:43;10.30;74.40
10133;DHT22;5106;50.926;7.080;2023-03-25T09:37:10;10.30;73.90
10133;DHT22;5106;50.926;7.080;2023-03-25T09:39:36;10.40;73.70
10133;DHT22;5106;50.926;7.080;2023-03-25T09:47:29;10.50;73.00
10133;DHT22;5106;50.926;7.080;2023-03-25T09:50:01;10.60;72.60
10133;DHT22;5106;50.926;7.080;2023-03-25T09:52:39;10.60;73.40
10133;DHT22;5106;50.926;7.080;2023-03-25T09:55:13;10.70;73.60
10133;DHT22;5106;50.926;7.080;2023-03-25T09:57:50;10.70;73.10
10133;DHT22;5106;50.926;7.080;2023-03-25T10:00:22;10.80;72.40
10133;DHT22;5106;50.926;7.080;2023-03-25T10:14:04;11.10;72.20
10133;DHT22;5106;50.926;7.080;2023-03-25T10:21:57;11.40;72.40
10133;DHT22;5106;50.926;7.080;2023-03-25T10:24:48;11.40;70.70
10133;DHT22;5106;50.926;7.080;2023-03-25T10:27:21;11.40;71.30
10133;DHT22;5106;50.926;7.080;2023-03-25T10:30:09;11.30;70.90
10133;DHT22;5106;50.926;7.080;2023-03-25T10:35:14;11.30;72.10
10133;DHT22;5106;50.926;7.080;2023-03-25T10:37:40;11.10;73.20
10133;DHT22;5106;50.926;7.080;2023-03-25T10:45:36;10.40;76.20
10133;DHT22;5106;50.926;7.080;2023-03-25T10:48:25;10.30;76.40
10133;DHT22;5106;50.926;7.080;2023-03-25T10:51:17;10.30;77.00
10133;DHT22;5106;50.926;7.080;2023-03-25T10:53:41;10.40;76.50
10133;DHT22;5106;50.926;7.080;2023-03-25T10:56:16;10.50;77.90
10133;DHT22;5106;50.926;7.080;2023-03-25T10:58:47;10.80;75.90
10133;DHT22;5106;50.926;7.080;2023-03-25T11:01:19;11.00;75.10
10133;DHT22;5106;50.926;7.080;2023-03-25T11:03:49;11.10;73.70
10133;DHT22;5106;50.926;7.080;2023-03-25T11:06:29;11.20;74.50
10133;DHT22;5106;50.926;7.080;2023-03-25T11:09:10;11.40;75.30
10133;DHT22;5106;50.926;7.080;2023-03-25T11:11:38;11.40;72.40
10133;DHT22;5106;50.926;7.080;2023-03-25T11:14:04;11.30;72.30
10133;DHT22;5106;50.926;7.080;2023-03-25T11:16:41;11.10;75.60
10133;DHT22;5106;50.926;7.080;2023-03-25T11:19:26;10.70;77.60
10133;DHT22;5106;50.926;7.080;2023-03-25T11:21:56;10.50;78.60
10133;DHT22;5106;50.926;7.080;2023-03-25T11:24:29;10.40;78.60
10133;DHT22;5106;50.926;7.080;2023-03-25T11:26:55;10.40;78.10
10133;DHT22;5106;50.926;7.080;2023-03-25T11:29:24;10.50;78.10
10133;DHT22;5106;50.926;7.080;2023-03-25T11:32:05;10.60;76.90
10133;DHT22;5106;50.926;7.080;2023-03-25T11:34:33;10.70;77.00
10133;DHT22;5106;50.926;7.080;2023-03-25T11:37:05;10.90;75.40
10133;DHT22;5106;50.926;7.080;2023-03-25T11:39:34;11.00;75.10
10133;DHT22;5106;50.926;7.080;2023-03-25T11:42:30;11.10;74.30
10133;DHT22;5106;50.926;7.080;2023-03-25T11:44:58;11.20;74.00
10133;DHT22;5106;50.926;7.080;2023-03-25T11:47:37;11.20;73.20
10133;DHT22;5106;50.926;7.080;2023-03-25T11:50:04;11.20;72.90
10133;DHT22;5106;50.926;7.080;2023-03-25T11:54:59;11.30;72.10
10133;DHT22;5106;50.926;7.080;2023-03-25T11:57:28;11.40;71.90
10133;DHT22;5106;50.926;7.080;2023-03-25T12:05:25;11.70;71.00
10133;DHT22;5106;50.926;7.080;2023-03-25T12:08:00;11.70;71.10
10133;DHT22;5106;50.926;7.080;2023-03-25T12:10:52;11.80;71.40
10133;DHT22;5106;50.926;7.080;2023-03-25T12:16:18;11.80;69.30
10133;DHT22;5106;50.926;7.080;2023-03-25T12:23:54;12.00;69.70
10133;DHT22;5106;50.926;7.080;2023-03-25T12:32:24;12.10;70.00
10133;DHT22;5106;50.926;7.080;2023-03-25T12:38:12;12.10;68.00
10133;DHT22;5106;50.926;7.080;2023-03-25T12:46:28;12.50;67.10
10133;DHT22;5106;50.926;7.080;2023-03-25T12:54:37;12.80;66.40
10133;DHT22;5106;50.926;7.080;2023-03-25T13:02:57;13.30;66.00
10133;DHT22;5106;50.926;7.080;2023-03-25T13:08:53;13.70;64.60
10133;DHT22;5106;50.926;7.080;2023-03-25T13:11:39;13.60;64.70
10133;DHT22;5106;50.926;7.080;2023-03-25T13:14:10;13.50;64.40
10133;DHT22;5106;50.926;7.080;2023-03-25T13:16:40;13.40;64.70
10133;DHT22;5106;50.926;7.080;2023-03-25T13:19:18;13.50;65.40
10133;DHT22;5106;50.926;7.080;2023-03-25T13:21:51;13.50;65.40
10133;DHT22;5106;50.926;7.080;2023-03-25T13:24:30;13.50;65.50
10133;DHT22;5106;50.926;7.080;2023-03-25T13:26:59;13.50;64.40
10133;DHT22;5106;50.926;7.080;2023-03-25T13:32:01;13.30;64.80
10133;DHT22;5106;50.926;7.080;2023-03-25T13:34:34;13.20;64.80
10133;DHT22;5106;50.926;7.080;2023-03-25T13:42:57;13.00;65.10
10133;DHT22;5106;50.926;7.080;2023-03-25T13:45:24;12.90;64.80
10133;DHT22;5106;50.926;7.080;2023-03-25T13:48:12;12.80;66.20
10133;DHT22;5106;50.926;7.080;2023-03-25T13:50:40;12.70;64.90
10133;DHT22;5106;50.926;7.080;2023-03-25T13:53:12;12.70;65.20
10133;DHT22;5106;50.926;7.080;2023-03-25T13:55:47;12.60;65.00
10133;DHT22;5106;50.926;7.080;2023-03-25T14:17:27;9.00;82.00
10133;DHT22;5106;50.926;7.080;2023-03-25T14:19:53;8.90;82.20
10133;DHT22;5106;50.926;7.080;2023-03-25T14:22:28;8.80;82.50
10133;DHT22;5106;50.926;7.080;2023-03-25T14:24:56;8.80;82.90
10133;DHT22;5106;50.926;7.080;2023-03-25T14:27:33;8.90;83.20
10133;DHT22;5106;50.926;7.080;2023-03-25T14:30:02;9.00;83.20
10133;DHT22;5106;50.926;7.080;2023-03-25T14:32:38;9.10;83.00
10133;DHT22;5106;50.926;7.080;2023-03-25T14:48:43;9.90;82.20
10133;DHT22;5106;50.926;7.080;2023-03-25T14:53:52;10.40;81.40
10133;DHT22;5106;50.926;7.080;2023-03-25T14:56:22;10.90;80.30
10133;DHT22;5106;50.926;7.080;2023-03-25T14:58:53;11.30;78.90
10133;DHT22;5106;50.926;7.080;2023-03-25T15:01:29;11.40;77.50
10133;DHT22;5106;50.926;7.080;2023-03-25T15:06:51;11.50;78.00
10133;DHT22;5106;50.926;7.080;2023-03-25T15:09:18;11.80;78.30
10133;DHT22;5106;50.926;7.080;2023-03-25T15:11:53;11.90;76.50
10133;DHT22;5106;50.926;7.080;2023-03-25T15:14:23;12.00;76.70
10133;DHT22;5106;50.926;7.080;2023-03-25T15:19:20;12.00;75.30
10133;DHT22;5106;50.926;7.080;2023-03-25T15:24:25;11.70;76.10
10133;DHT22;5106;50.926;7.080;2023-03-25T15:26:54;11.50;77.10
10133;DHT22;5106;50.926;7.080;2023-03-25T15:29:38;11.20;77.50
10133;DHT22;5106;50.926;7.080;2023-03-25T15:35:49;10.90;78.30
10133;DHT22;5106;50.926;7.080;2023-03-25T15:54:27;10.40;80.60
10133;DHT22;5106;50.926;7.080;2023-03-25T15:57:13;10.60;81.10
10133;DHT22;5106;50.926;7.080;2023-03-25T16:02:39;11.40;79.30
10133;DHT22;5106;50.926;7.080;2023-03-25T16:05:06;11.80;77.00
10133;DHT22;5106;50.926;7.080;2023-03-25T16:07:33;11.90;74.10
10133;DHT22;5106;50.926;7.080;2023-03-25T16:10:30;11.80;74.30
10133;DHT22;5106;50.926;7.080;2023-03-25T16:13:01;11.70;73.90
10133;DHT22;5106;50.926;7.080;2023-03-25T16:15:29;11.60;73.20
10133;DHT22;5106;50.926;7.080;2023-03-25T16:17:56;11.60;73.30
10133;DHT22;5106;50.926;7.080;2023-03-25T16:20:25;11.60;72.70
10133;DHT22;5106;50.926;7.080;2023-03-25T16:22:53;11.60;72.10
10133;DHT22;5106;50.926;7.080;2023-03-25T16:25:23;11.70;71.60
10133;DHT22;5106;50.926;7.080;2023-03-25T16:27:54;11.90;70.60
10133;DHT22;5106;50.926;7.080;2023-03-25T16:30:25;12.20;70.60
10133;DHT22;5106;50.926;7.080;2023-03-25T16:32:51;12.70;69.20
10133;DHT22;5106;50.926;7.080;2023-03-25T16:35:22;13.30;68.00
10133;DHT22;5106;50.926;7.080;2023-03-25T16:37:49;13.50;69.90
10133;DHT22;5106;50.926;7.080;2023-03-25T16:40:24;13.40;72.20
10133;DHT22;5106;50.926;7.080;2023-03-25T16:42:52;13.20;72.10
10133;DHT22;5106;50.926;7.080;2023-03-25T16:45:18;12.90;72.00
10133;DHT22;5106;50.926;7.080;2023-03-25T16:47:44;12.50;72.40
10133;DHT22;5106;50.926;7.080;2023-03-25T16:50:15;12.20;72.60
10133;DHT22;5106;50.926;7.080;2023-03-25T16:52:43;11.90;72.70
10133;DHT22;5106;50.926;7.080;2023-03-25T16:55:25;11.70;72.60
10133;DHT22;5106;50.926;7.080;2023-03-25T16:57:51;11.70;72.70
10133;DHT22;5106;50.926;7.080;2023-03-25T17:00:20;11.60;71.90
10133;DHT22;5106;50.926;7.080;2023-03-25T17:02:47;11.70;71.00
10133;DHT22;5106;50.926;7.080;2023-03-25T17:05:32;11.80;70.70
10133;DHT22;5106;50.926;7.080;2023-03-25T17:08:03;11.80;69.50
10133;DHT22;5106;50.926;7.080;2023-03-25T17:10:45;11.90;69.30
10133;DHT22;5106;50.926;7.080;2023-03-25T17:13:43;11.80;69.80
10133;DHT22;5106;50.926;7.080;2023-03-25T17:16:09;11.30;73.50
10133;DHT22;5106;50.926;7.080;2023-03-25T17:18:36;10.80;75.20
10133;DHT22;5106;50.926;7.080;2023-03-25T17:21:09;10.40;76.80
10133;DHT22;5106;50.926;7.080;2023-03-25T17:23:44;10.20;77.10
10133;DHT22;5106;50.926;7.080;2023-03-25T17:26:12;10.10;77.20
10133;DHT22;5106;50.926;7.080;2023-03-25T17:28:45;10.10;77.50
10133;DHT22;5106;50.926;7.080;2023-03-25T17:31:36;10.10;77.50
10133;DHT22;5106;50.926;7.080;2023-03-25T17:34:24;10.20;77.20
10133;DHT22;5106;50.926;7.080;2023-03-25T17:37:00;10.20;77.20
10133;DHT22;5106;50.926;7.080;2023-03-25T17:39:33;10.30;77.70
10133;DHT22;5106;50.926;7.080;2023-03-25T17:42:03;10.30;77.40
10133;DHT22;5106;50.926;7.080;2023-03-25T17:44:35;10.30;77.50
10133;DHT22;5106;50.926;7.080;2023-03-25T17:47:05;10.40;77.10
10133;DHT22;5106;50.926;7.080;2023-03-25T17:49:30;10.40;77.50
10133;DHT22;5106;50.926;7.080;2023-03-25T17:51:56;10.40;76.60
10133;DHT22;5106;50.926;7.080;2023-03-25T17:54:23;10.40;76.60
10133;DHT22;5106;50.926;7.080;2023-03-25T17:56:48;10.50;76.90
10133;DHT22;5106;50.926;7.080;2023-03-25T17:59:19;10.50;76.30
10133;DHT22;5106;50.926;7.080;2023-03-25T18:01:46;10.50;76.20
10133;DHT22;5106;50.926;7.080;2023-03-25T18:04:15;10.60;76.20
10133;DHT22;5106;50.926;7.080;2023-03-25T18:06:41;10.60;75.90
10133;DHT22;5106;50.926;7.080;2023-03-25T18:11:46;10.60;75.30
10133;DHT22;5106;50.926;7.080;2023-03-25T18:14:11;10.60;76.30
10133;DHT22;5106;50.926;7.080;2023-03-25T18:16:37;10.40;77.00
10133;DHT22;5106;50.926;7.080;2023-03-25T18:19:03;10.30;78.20
10133;DHT22;5106;50.926;7.080;2023-03-25T18:21:29;10.00;79.10
10133;DHT22;5106;50.926;7.080;2023-03-25T18:23:54;9.70;80.10
10133;DHT22;5106;50.926;7.080;2023-03-25T18:26:21;9.50;80.30
10133;DHT22;5106;50.926;7.080;2023-03-25T18:28:47;9.30;80.60
10133;DHT22;5106;50.926;7.080;2023-03-25T18:31:15;9.10;80.70
10133;DHT22;5106;50.926;7.080;2023-03-25T18:33:47;9.10;81.10
10133;DHT22;5106;50.926;7.080;2023-03-25T18:36:14;9.00;81.30
10133;DHT22;5106;50.926;7.080;2023-03-25T18:38:41;8.90;81.10
10133;DHT22;5106;50.926;7.080;2023-03-25T18:41:10;8.90;81.40
10133;DHT22;5106;50.926;7.080;2023-03-25T18:43:35;8.90;81.60
10133;DHT22;5106;50.926;7.080;2023-03-25T18:46:02;8.80;81.80
10133;DHT22;5106;50.926;7.080;2023-03-25T18:48:28;8.80;81.80
10133;DHT22;5106;50.926;7.080;2023-03-25T18:50:56;8.70;82.00
10133;DHT22;5106;50.926;7.080;2023-03-25T18:53:25;8.70;82.40
10133;DHT22;5106;50.926;7.080;2023-03-25T18:55:52;8.60;82.70
10133;DHT22;5106;50.926;7.080;2023-03-25T18:58:21;8.60;82.70
10133;DHT22;5106;50.926;7.080;2023-03-25T19:00:48;8.50;82.50
10133;DHT22;5106;50.926;7.080;2023-03-25T19:03:15;8.30;82.40
10133;DHT22;5106;50.926;7.080;2023-03-25T19:05:41;8.20;82.30
10133;DHT22;5106;50.926;7.080;2023-03-25T19:08:18;8.10;82.50
10133;DHT22;5106;50.926;7.080;2023-03-25T19:10:46;8.10;82.40